British Robin — MGSH7 — position and weather

sailwx.info

Track history (hours):
 
Tides and Currents Weather Stations Pressure Air Temp Water Temp Dewpoint Dewpoint Depression Visibility Wind Speed Wind Dir Waves Ship Positions

British Robin

Last reported at 2017-Jan-21 22:00 UTC. Time now 2017-Jan-22 12:14 UTC.
Position N 58°00' E 020°18'.

Length 251.5 m; beam 43.9 m; draft 15 m.

Type: Tanker. MMSI: 232156000.

Wind from 270 at 18 knots

Barometer 1026.9 mb
Air temperature 4.0 ° C
Visibility: greater than 10.8 NM
Dewpoint 2.8 ° C

Date/timePositionNaut miles runAvg speedWind from/ knotsBaromVisibWave heightAir tempDewpointWater temp
2017-Jan-21 22:00N 58°00' E 020°18'9612.0 270 / 181026.910.8 4.0 2.8
2017-Jan-21 14:00N 59°18' E 022°06'1416.2 320 / 151025.0 5.4 3.0 1.7
2017-Jan-21 13:07N 59°28' E 022°25'3312.8
2017-Jan-21 10:33N 59°39' E 023°27'814.7
2017-Jan-21 10:00N 59°36' E 023°42'817.3 300 / 201022.2 5.4 2.5-0.2
2017-Jan-21 09:33N 59°42' E 023°51'7813.0
2017-Jan-21 03:33N 59°60' E 026°22'1312.6
2017-Jan-21 02:33N 60°01' E 026°47'1212.0
2017-Jan-21 01:33N 60°02' E 027°11'1313.3
2017-Jan-21 00:33N 60°08' E 027°34'1212.2
2017-Jan-20 23:33N 60°10' E 027°58'1312.7
2017-Jan-20 22:33N 60°08' E 028°23'1110.8
2017-Jan-20 21:33N 60°11' E 028°44'5 5.4
2017-Jan-20 20:33N 60°16' E 028°47'4 0.1
2017-Jan-19 06:30N 60°20' E 028°43'1 1.3
2017-Jan-19 05:28N 60°19' E 028°43'7 7.4
2017-Jan-19 04:33N 60°12' E 028°45'1 1.3
2017-Jan-19 03:27N 60°11' E 028°43'4 4.3
2017-Jan-19 02:33N 60°09' E 028°36'4 3.8
2017-Jan-19 01:33N 60°07' E 028°30'7 6.9
2017-Jan-19 00:33N 60°07' E 028°16'1212.5
2017-Jan-18 23:34N 60°10' E 027°52'1212.1
2017-Jan-18 22:33N 60°06' E 027°29'12 0.9
2017-Jan-18 09:30N 60°02' E 027°06'0 0.1
2017-Jan-18 08:15N 60°02' E 027°06'1 1.0
2017-Jan-18 07:33N 60°02' E 027°07'2 2.5
2017-Jan-18 06:33N 59°60' E 027°05'6 6.4
2017-Jan-18 05:33N 59°59' E 026°52'1212.4
2017-Jan-18 04:33N 59°58' E 026°28'611.1
2017-Jan-18 04:00N 59°54' E 026°18'6413.3 240 / 261026.6 5.4 0.5-0.9
2017-Jan-17 23:12N 59°42' E 024°14'913.2
2017-Jan-17 22:33N 59°39' E 023°57'1629.4
2017-Jan-17 22:00N 59°30' E 023°30'510.9 220 / 231030.710.8 0.5-0.9
2017-Jan-17 21:33N 59°34' E 023°33'1312.8
2017-Jan-17 20:32N 59°30' E 023°09'7711.8
2017-Jan-17 14:00N 58°42' E 021°12'4411.0 1032.1 5.4 -0.0-3.0
2017-Jan-17 10:00N 58°06' E 020°24'15511.9 030 / 81032.710.8 0.5-4.0
2017-Jan-16 21:00N 55°54' E 017°54'8312.5 040 / 121027.610.8 1.0-0.4
2017-Jan-16 14:18N 55°37' E 015°29'1011.8
2017-Jan-16 13:29N 55°32' E 015°14'1212.4
2017-Jan-16 12:33N 55°23' E 015°01'7 6.8
2017-Jan-16 11:33N 55°18' E 014°53'1 0.9
2017-Jan-16 10:33N 55°17' E 014°52'0 0.0
2017-Jan-16 09:32N 55°17' E 014°52'0 0.1
2017-Jan-16 08:32N 55°17' E 014°53'0 0.0
2017-Jan-16 07:26N 55°17' E 014°52'0 0.0
2017-Jan-16 06:32N 55°17' E 014°52'0 0.0
2017-Jan-16 05:32N 55°17' E 014°52'0 0.0
2017-Jan-16 04:32N 55°17' E 014°52'0 0.0
2017-Jan-16 03:32N 55°17' E 014°52'0 0.0
2017-Jan-16 02:32N 55°17' E 014°52'0 0.0
2017-Jan-16 01:26N 55°17' E 014°52'0 0.0
2017-Jan-16 00:26N 55°17' E 014°52'0 0.0
2017-Jan-15 23:32N 55°17' E 014°52'0 0.0
2017-Jan-15 22:32N 55°17' E 014°52'610.7
2017-Jan-15 22:00N 55°12' E 014°48'612.8 010 / 121018.710.8 0.5-0.9
2017-Jan-15 21:32N 55°17' E 014°52'0 0.0
2017-Jan-15 20:32N 55°17' E 014°52'0 0.0
2017-Jan-15 19:32N 55°17' E 014°52'0 0.0
2017-Jan-15 18:32N 55°17' E 014°52'0 0.0
2017-Jan-15 17:32N 55°17' E 014°52'0 0.0
2017-Jan-15 16:32N 55°17' E 014°52'0 0.0
2017-Jan-15 15:32N 55°17' E 014°52'0 0.0
2017-Jan-15 14:32N 55°17' E 014°52'0 0.0
2017-Jan-15 13:32N 55°17' E 014°52'0 0.0
2017-Jan-15 12:23N 55°17' E 014°52'0 0.0
2017-Jan-15 11:32N 55°17' E 014°52'0 0.0
2017-Jan-15 10:32N 55°17' E 014°52'0 0.0
2017-Jan-15 09:05N 55°17' E 014°52'0 0.0
2017-Jan-15 08:32N 55°17' E 014°52'0 0.0
2017-Jan-15 07:17N 55°17' E 014°52'0 0.0
2017-Jan-15 06:26N 55°17' E 014°52'613.3
2017-Jan-15 06:00N 55°12' E 014°48'612.6 020 / 201007.7 5.4 2.0-2.4
2017-Jan-15 05:32N 55°17' E 014°52'0 0.0
2017-Jan-15 04:32N 55°17' E 014°52'0 0.0
2017-Jan-15 03:32N 55°17' E 014°52'0 0.0
2017-Jan-15 02:32N 55°17' E 014°52'0 0.0
2017-Jan-15 01:32N 55°17' E 014°52'0 0.0
2017-Jan-15 00:32N 55°17' E 014°52'0 0.0
2017-Jan-14 23:31N 55°17' E 014°52'0 0.1
2017-Jan-14 22:31N 55°17' E 014°53'0 0.0
2017-Jan-14 21:31N 55°17' E 014°53'0 0.0
2017-Jan-14 20:13N 55°17' E 014°53'0 0.0
2017-Jan-14 19:31N 55°17' E 014°53'0 0.0
2017-Jan-14 18:31N 55°17' E 014°53'0 0.0
2017-Jan-14 17:31N 55°17' E 014°53'0 0.0
2017-Jan-14 16:31N 55°17' E 014°53'0 0.1
2017-Jan-14 15:31N 55°18' E 014°53'0 0.0
2017-Jan-14 14:31N 55°18' E 014°53'0 0.1
2017-Jan-14 13:31N 55°17' E 014°53'0 0.0
2017-Jan-14 12:31N 55°18' E 014°53'0 0.0
2017-Jan-14 11:31N 55°17' E 014°53'611.5
2017-Jan-14 11:00N 55°12' E 014°48'612.9 250 / 10998.810.8 3.5-3.9
2017-Jan-14 10:31N 55°17' E 014°53'0 0.1
2017-Jan-14 09:31N 55°17' E 014°53'0 0.0
2017-Jan-14 08:31N 55°17' E 014°53'0 0.1
2017-Jan-14 07:31N 55°17' E 014°53'0 0.0
2017-Jan-14 06:31N 55°17' E 014°53'611.6
2017-Jan-14 06:00N 55°12' E 014°48'612.7 270 / 8997.4 5.4 2.0 0.7
2017-Jan-14 05:31N 55°17' E 014°53'0 0.0
2017-Jan-14 04:31N 55°17' E 014°53'0 0.0
2017-Jan-14 03:31N 55°17' E 014°53'0 0.0
2017-Jan-13 23:31N 55°17' E 014°53'611.6
2017-Jan-13 23:00N 55°12' E 014°48'612.4 310 / 13995.710.8 0.5-0.911.4
2017-Jan-13 22:31N 55°17' E 014°53'0 0.1
2017-Jan-13 21:31N 55°17' E 014°53'0 0.0
2017-Jan-13 20:31N 55°17' E 014°53'0 0.1
2017-Jan-13 19:31N 55°17' E 014°53'0 0.1
2017-Jan-13 18:31N 55°17' E 014°53'0 0.0
2017-Jan-13 17:31N 55°17' E 014°53'0 0.0
2017-Jan-13 16:28N 55°17' E 014°53'0 0.0
2017-Jan-13 15:31N 55°17' E 014°53'611.3
2017-Jan-13 15:00N 55°12' E 014°48'612.1 080 / 10990.5 5.4 3.5 0.9
2017-Jan-13 14:31N 55°17' E 014°52'0 0.1
2017-Jan-13 13:30N 55°17' E 014°52'0 0.0
2017-Jan-13 12:30N 55°18' E 014°52'0 0.0
2017-Jan-13 11:30N 55°17' E 014°52'611.7
2017-Jan-13 11:00N 55°12' E 014°48'612.3 090 / 12988.7 5.4 3.5 2.2
2017-Jan-13 10:30N 55°17' E 014°52'0 0.1
2017-Jan-13 09:30N 55°18' E 014°52'0 0.0
2017-Jan-13 08:30N 55°18' E 014°52'0 0.0
2017-Jan-13 07:33N 55°18' E 014°52'0 0.0
2017-Jan-13 06:30N 55°18' E 014°52'611.8
2017-Jan-13 06:00N 55°12' E 014°48'612.5 130 / 6988.6 5.4 3.5 2.2
2017-Jan-13 05:30N 55°18' E 014°52'0 0.1
2017-Jan-13 04:33N 55°18' E 014°53'0 0.0
2017-Jan-13 03:30N 55°18' E 014°53'3 5.2
2017-Jan-13 03:00N 55°18' E 014°48'3 5.6 220 / 14990.6 5.4 3.0 1.7
2017-Jan-13 02:30N 55°18' E 014°53'0 0.0
2017-Jan-13 01:30N 55°18' E 014°53'0 0.0
2017-Jan-13 00:30N 55°18' E 014°53'0 0.0
2017-Jan-12 23:30N 55°18' E 014°53'612.1
2017-Jan-12 23:00N 55°12' E 014°48'612.5 240 / 25992.110.8 3.5 0.911.5
2017-Jan-12 22:30N 55°17' E 014°53'0 0.0
2017-Jan-12 21:30N 55°17' E 014°53'0 0.0
2017-Jan-12 20:30N 55°17' E 014°53'0 0.0
2017-Jan-12 19:30N 55°17' E 014°53'0 0.0
2017-Jan-12 18:33N 55°17' E 014°53'0 0.0
2017-Jan-12 17:30N 55°17' E 014°53'0 0.0
2017-Jan-12 16:30N 55°17' E 014°53'0 0.0
2017-Jan-12 15:30N 55°17' E 014°53'0 0.1
2017-Jan-12 14:33N 55°17' E 014°53'0 0.0
2017-Jan-12 13:30N 55°17' E 014°53'0 0.1
2017-Jan-12 12:33N 55°17' E 014°53'0 0.0
2017-Jan-12 11:33N 55°17' E 014°53'611.0
2017-Jan-12 11:00N 55°12' E 014°48'610.2 260 / 35992.510.8 4.5 2.0
2017-Jan-12 10:24N 55°17' E 014°53'0 0.0
2017-Jan-12 09:30N 55°17' E 014°53'0 0.1
2017-Jan-12 08:30N 55°17' E 014°53'6 0.6
2017-Jan-11 23:00N 55°12' E 014°48'   260 / 33987.810.8 5.0 2.510.8
Track history (hours):
 
Tides and Currents Weather Stations Pressure Air Temp Water Temp Dewpoint Dewpoint Depression Visibility Wind Speed Wind Dir Waves Ship Positions

British Robin

Last reported at 2017-Jan-21 22:00 UTC. Time now 2017-Jan-22 12:14 UTC.
Position N 58°00' E 020°18'.

Length 251.5 m; beam 43.9 m; draft 15 m.

Type: Tanker. MMSI: 232156000.

Wind from 270 at 18 knots

Barometer 1026.9 mb
Air temperature 4.0 ° C
Visibility: greater than 10.8 NM
Dewpoint 2.8 ° C

Date/timePositionNaut miles runAvg speedWind from/ knotsBaromVisibWave heightAir tempDewpointWater temp
2017-Jan-21 22:00N 58°00' E 020°18'9612.0 270 / 181026.910.8 4.0 2.8
2017-Jan-21 14:00N 59°18' E 022°06'1416.2 320 / 151025.0 5.4 3.0 1.7
2017-Jan-21 13:07N 59°28' E 022°25'3312.8
2017-Jan-21 10:33N 59°39' E 023°27'814.7
2017-Jan-21 10:00N 59°36' E 023°42'817.3 300 / 201022.2 5.4 2.5-0.2
2017-Jan-21 09:33N 59°42' E 023°51'7813.0
2017-Jan-21 03:33N 59°60' E 026°22'1312.6
2017-Jan-21 02:33N 60°01' E 026°47'1212.0
2017-Jan-21 01:33N 60°02' E 027°11'1313.3
2017-Jan-21 00:33N 60°08' E 027°34'1212.2
2017-Jan-20 23:33N 60°10' E 027°58'1312.7
2017-Jan-20 22:33N 60°08' E 028°23'1110.8
2017-Jan-20 21:33N 60°11' E 028°44'5 5.4
2017-Jan-20 20:33N 60°16' E 028°47'4 0.1
2017-Jan-19 06:30N 60°20' E 028°43'1 1.3
2017-Jan-19 05:28N 60°19' E 028°43'7 7.4
2017-Jan-19 04:33N 60°12' E 028°45'1 1.3
2017-Jan-19 03:27N 60°11' E 028°43'4 4.3
2017-Jan-19 02:33N 60°09' E 028°36'4 3.8
2017-Jan-19 01:33N 60°07' E 028°30'7 6.9
2017-Jan-19 00:33N 60°07' E 028°16'1212.5
2017-Jan-18 23:34N 60°10' E 027°52'1212.1
2017-Jan-18 22:33N 60°06' E 027°29'12 0.9
2017-Jan-18 09:30N 60°02' E 027°06'0 0.1
2017-Jan-18 08:15N 60°02' E 027°06'1 1.0
2017-Jan-18 07:33N 60°02' E 027°07'2 2.5
2017-Jan-18 06:33N 59°60' E 027°05'6 6.4
2017-Jan-18 05:33N 59°59' E 026°52'1212.4
2017-Jan-18 04:33N 59°58' E 026°28'611.1
2017-Jan-18 04:00N 59°54' E 026°18'6413.3 240 / 261026.6 5.4 0.5-0.9
2017-Jan-17 23:12N 59°42' E 024°14'913.2
2017-Jan-17 22:33N 59°39' E 023°57'1629.4
2017-Jan-17 22:00N 59°30' E 023°30'510.9 220 / 231030.710.8 0.5-0.9
2017-Jan-17 21:33N 59°34' E 023°33'1312.8
2017-Jan-17 20:32N 59°30' E 023°09'7711.8
2017-Jan-17 14:00N 58°42' E 021°12'4411.0 1032.1 5.4 -0.0-3.0
2017-Jan-17 10:00N 58°06' E 020°24'15511.9 030 / 81032.710.8 0.5-4.0
2017-Jan-16 21:00N 55°54' E 017°54'8312.5 040 / 121027.610.8 1.0-0.4
2017-Jan-16 14:18N 55°37' E 015°29'1011.8
2017-Jan-16 13:29N 55°32' E 015°14'1212.4
2017-Jan-16 12:33N 55°23' E 015°01'7 6.8
2017-Jan-16 11:33N 55°18' E 014°53'1 0.9
2017-Jan-16 10:33N 55°17' E 014°52'0 0.0
2017-Jan-16 09:32N 55°17' E 014°52'0 0.1
2017-Jan-16 08:32N 55°17' E 014°53'0 0.0
2017-Jan-16 07:26N 55°17' E 014°52'0 0.0
2017-Jan-16 06:32N 55°17' E 014°52'0 0.0
2017-Jan-16 05:32N 55°17' E 014°52'0 0.0
2017-Jan-16 04:32N 55°17' E 014°52'0 0.0
2017-Jan-16 03:32N 55°17' E 014°52'0 0.0
2017-Jan-16 02:32N 55°17' E 014°52'0 0.0
2017-Jan-16 01:26N 55°17' E 014°52'0 0.0
2017-Jan-16 00:26N 55°17' E 014°52'0 0.0
2017-Jan-15 23:32N 55°17' E 014°52'0 0.0
2017-Jan-15 22:32N 55°17' E 014°52'610.7
2017-Jan-15 22:00N 55°12' E 014°48'612.8 010 / 121018.710.8 0.5-0.9
2017-Jan-15 21:32N 55°17' E 014°52'0 0.0
2017-Jan-15 20:32N 55°17' E 014°52'0 0.0
2017-Jan-15 19:32N 55°17' E 014°52'0 0.0
2017-Jan-15 18:32N 55°17' E 014°52'0 0.0
2017-Jan-15 17:32N 55°17' E 014°52'0 0.0
2017-Jan-15 16:32N 55°17' E 014°52'0 0.0
2017-Jan-15 15:32N 55°17' E 014°52'0 0.0
2017-Jan-15 14:32N 55°17' E 014°52'0 0.0
2017-Jan-15 13:32N 55°17' E 014°52'0 0.0
2017-Jan-15 12:23N 55°17' E 014°52'0 0.0
2017-Jan-15 11:32N 55°17' E 014°52'0 0.0
2017-Jan-15 10:32N 55°17' E 014°52'0 0.0
2017-Jan-15 09:05N 55°17' E 014°52'0 0.0
2017-Jan-15 08:32N 55°17' E 014°52'0 0.0
2017-Jan-15 07:17N 55°17' E 014°52'0 0.0
2017-Jan-15 06:26N 55°17' E 014°52'613.3
2017-Jan-15 06:00N 55°12' E 014°48'612.6 020 / 201007.7 5.4 2.0-2.4
2017-Jan-15 05:32N 55°17' E 014°52'0 0.0
2017-Jan-15 04:32N 55°17' E 014°52'0 0.0
2017-Jan-15 03:32N 55°17' E 014°52'0 0.0
2017-Jan-15 02:32N 55°17' E 014°52'0 0.0
2017-Jan-15 01:32N 55°17' E 014°52'0 0.0
2017-Jan-15 00:32N 55°17' E 014°52'0 0.0
2017-Jan-14 23:31N 55°17' E 014°52'0 0.1
2017-Jan-14 22:31N 55°17' E 014°53'0 0.0
2017-Jan-14 21:31N 55°17' E 014°53'0 0.0
2017-Jan-14 20:13N 55°17' E 014°53'0 0.0
2017-Jan-14 19:31N 55°17' E 014°53'0 0.0
2017-Jan-14 18:31N 55°17' E 014°53'0 0.0
2017-Jan-14 17:31N 55°17' E 014°53'0 0.0
2017-Jan-14 16:31N 55°17' E 014°53'0 0.1
2017-Jan-14 15:31N 55°18' E 014°53'0 0.0
2017-Jan-14 14:31N 55°18' E 014°53'0 0.1
2017-Jan-14 13:31N 55°17' E 014°53'0 0.0
2017-Jan-14 12:31N 55°18' E 014°53'0 0.0
2017-Jan-14 11:31N 55°17' E 014°53'611.5
2017-Jan-14 11:00N 55°12' E 014°48'612.9 250 / 10998.810.8 3.5-3.9
2017-Jan-14 10:31N 55°17' E 014°53'0 0.1
2017-Jan-14 09:31N 55°17' E 014°53'0 0.0
2017-Jan-14 08:31N 55°17' E 014°53'0 0.1
2017-Jan-14 07:31N 55°17' E 014°53'0 0.0
2017-Jan-14 06:31N 55°17' E 014°53'611.6
2017-Jan-14 06:00N 55°12' E 014°48'612.7 270 / 8997.4 5.4 2.0 0.7
2017-Jan-14 05:31N 55°17' E 014°53'0 0.0
2017-Jan-14 04:31N 55°17' E 014°53'0 0.0
2017-Jan-14 03:31N 55°17' E 014°53'0 0.0
2017-Jan-13 23:31N 55°17' E 014°53'611.6
2017-Jan-13 23:00N 55°12' E 014°48'612.4 310 / 13995.710.8 0.5-0.911.4
2017-Jan-13 22:31N 55°17' E 014°53'0 0.1
2017-Jan-13 21:31N 55°17' E 014°53'0 0.0
2017-Jan-13 20:31N 55°17' E 014°53'0 0.1
2017-Jan-13 19:31N 55°17' E 014°53'0 0.1
2017-Jan-13 18:31N 55°17' E 014°53'0 0.0
2017-Jan-13 17:31N 55°17' E 014°53'0 0.0
2017-Jan-13 16:28N 55°17' E 014°53'0 0.0
2017-Jan-13 15:31N 55°17' E 014°53'611.3
2017-Jan-13 15:00N 55°12' E 014°48'612.1 080 / 10990.5 5.4 3.5 0.9
2017-Jan-13 14:31N 55°17' E 014°52'0 0.1
2017-Jan-13 13:30N 55°17' E 014°52'0 0.0
2017-Jan-13 12:30N 55°18' E 014°52'0 0.0
2017-Jan-13 11:30N 55°17' E 014°52'611.7
2017-Jan-13 11:00N 55°12' E 014°48'612.3 090 / 12988.7 5.4 3.5 2.2
2017-Jan-13 10:30N 55°17' E 014°52'0 0.1
2017-Jan-13 09:30N 55°18' E 014°52'0 0.0
2017-Jan-13 08:30N 55°18' E 014°52'0 0.0
2017-Jan-13 07:33N 55°18' E 014°52'0 0.0
2017-Jan-13 06:30N 55°18' E 014°52'611.8
2017-Jan-13 06:00N 55°12' E 014°48'612.5 130 / 6988.6 5.4 3.5 2.2
2017-Jan-13 05:30N 55°18' E 014°52'0 0.1
2017-Jan-13 04:33N 55°18' E 014°53'0 0.0
2017-Jan-13 03:30N 55°18' E 014°53'3 5.2
2017-Jan-13 03:00N 55°18' E 014°48'3 5.6 220 / 14990.6 5.4 3.0 1.7
2017-Jan-13 02:30N 55°18' E 014°53'0 0.0
2017-Jan-13 01:30N 55°18' E 014°53'0 0.0
2017-Jan-13 00:30N 55°18' E 014°53'0 0.0
2017-Jan-12 23:30N 55°18' E 014°53'612.1
2017-Jan-12 23:00N 55°12' E 014°48'612.5 240 / 25992.110.8 3.5 0.911.5
2017-Jan-12 22:30N 55°17' E 014°53'0 0.0
2017-Jan-12 21:30N 55°17' E 014°53'0 0.0
2017-Jan-12 20:30N 55°17' E 014°53'0 0.0
2017-Jan-12 19:30N 55°17' E 014°53'0 0.0
2017-Jan-12 18:33N 55°17' E 014°53'0 0.0
2017-Jan-12 17:30N 55°17' E 014°53'0 0.0
2017-Jan-12 16:30N 55°17' E 014°53'0 0.0
2017-Jan-12 15:30N 55°17' E 014°53'0 0.1
2017-Jan-12 14:33N 55°17' E 014°53'0 0.0
2017-Jan-12 13:30N 55°17' E 014°53'0 0.1
2017-Jan-12 12:33N 55°17' E 014°53'0 0.0
2017-Jan-12 11:33N 55°17' E 014°53'611.0
2017-Jan-12 11:00N 55°12' E 014°48'610.2 260 / 35992.510.8 4.5 2.0
2017-Jan-12 10:24N 55°17' E 014°53'0 0.0
2017-Jan-12 09:30N 55°17' E 014°53'0 0.1
2017-Jan-12 08:30N 55°17' E 014°53'6 0.6
2017-Jan-11 23:00N 55°12' E 014°48'   260 / 33987.810.8 5.0 2.510.8

Dump ship's entire track history